Alvin, Illinois
Current Conditions -  °F | °C
As of 11:35 PM on Wednesday 26 Nov 2014 (Local Time) from KDNV Reporting Station
Overcast Overcast  
Wind Chill: -8°   Ceiling: 2300
Heat Index: -3°   Visibility: 10mi
Dew Point: -6°   Wind: 9mph
Humidity: 79%   Direction: 10°N
Pressure: 30.15"   Gusts: NA
Location:  40.31°N, 87.61°W
Report Text: KDNV 270535Z AUTO 01008KT 10SM SCT016 BKN023 OVC070 M03/M06 A3015 RMK AO2 T10301061
Loading
Personal Weather Stations






























Interactive Weather Map New forecast layout! Learn more

10-Day Weather Forecast

Advertisements
Track Severe Weather on mobile